Time;durP1;ratioP1;P1;durP2;ratioP2;P2;SDS_P1;SDS_P2;PMS_P1;PMS_P2;Temp;Humidity;BMP_temperature;BMP_pressure;BME280_temperature;BME280_humidity;BME280_pressure;Samples;Min_cycle;Max_cycle;Signal;HPM_P1;HPM_P2
2021/10/28 00:12:14;;;;;;;68.20;25.48;;;;;;;4.82;100.00;101688.87;1758168;81;20937;-43
2021/10/28 00:14:41;;;;;;;46.68;22.10;;;;;;;4.87;100.00;101689.84;1758116;81;21865;-43
2021/10/28 00:17:12;;;;;;;51.55;23.55;;;;;;;4.92;100.00;101695.06;1758168;81;20983;-43
2021/10/28 00:19:40;;;;;;;52.93;23.42;;;;;;;4.94;100.00;101692.16;1757943;81;20976;-43
2021/10/28 00:22:08;;;;;;;42.08;23.15;;;;;;;4.94;100.00;101692.16;1757921;81;20912;-42
2021/10/28 00:24:34;;;;;;;50.73;23.92;;;;;;;4.95;100.00;101686.19;1749871;81;20889;-43
2021/10/28 00:27:00;;;;;;;42.70;24.10;;;;;;;4.97;100.00;101689.23;1749660;82;22079;-43
2021/10/28 00:29:27;;;;;;;48.30;24.55;;;;;;;4.97;100.00;101687.09;1749594;82;21003;-42
2021/10/28 00:31:57;;;;;;;54.93;27.00;;;;;;;4.94;100.00;101686.59;1749614;82;20897;-43
2021/10/28 00:34:23;;;;;;;40.70;22.35;;;;;;;4.92;100.00;101688.66;1749600;82;20857;-42
2021/10/28 00:36:50;;;;;;;37.83;22.67;;;;;;;4.90;100.00;101691.20;1749853;81;21546;-42
2021/10/28 00:39:17;;;;;;;44.63;23.12;;;;;;;4.79;100.00;101685.80;1749697;82;21803;-43
2021/10/28 00:41:43;;;;;;;50.85;23.50;;;;;;;4.66;100.00;101692.31;1720147;82;20920;-42
2021/10/28 00:44:13;;;;;;;41.83;21.85;;;;;;;4.52;100.00;101690.67;1749635;82;20929;-42
2021/10/28 00:46:40;;;;;;;54.53;23.27;;;;;;;4.38;100.00;101688.14;1749541;81;20893;-42
2021/10/28 00:49:09;;;;;;;52.73;24.12;;;;;;;4.23;100.00;101678.34;1749657;82;21452;-42
2021/10/28 00:51:36;;;;;;;85.75;25.82;;;;;;;3.96;100.00;101673.79;1749946;81;21839;-43
2021/10/28 00:54:05;;;;;;;104.72;29.02;;;;;;;3.96;100.00;101673.79;1749694;82;21403;-43
2021/10/28 00:56:32;;;;;;;132.70;26.20;;;;;;;3.84;100.00;101675.98;1750545;80;20920;-43
2021/10/28 00:59:01;;;;;;;134.00;31.73;;;;;;;3.55;100.00;101676.00;1750375;82;21437;-43
2021/10/28 01:01:29;;;;;;;134.12;30.45;;;;;;;3.55;100.00;101676.00;1750440;82;20996;-42
2021/10/28 01:03:56;;;;;;;130.70;29.92;;;;;;;3.44;100.00;101684.23;1750770;82;21100;-42
2021/10/28 01:06:23;;;;;;;159.97;31.82;;;;;;;3.37;100.00;101683.99;1749944;81;20870;-42
2021/10/28 01:08:49;;;;;;;139.97;25.17;;;;;;;3.20;100.00;101682.19;1750274;82;20924;-42
2021/10/28 01:11:16;;;;;;;209.85;33.00;;;;;;;3.20;100.00;101682.19;1749918;82;21454;-42
2021/10/28 01:13:42;;;;;;;64.55;17.85;;;;;;;3.09;100.00;101680.14;1750081;81;20968;-42
2021/10/28 01:16:10;;;;;;;69.72;18.12;;;;;;;3.00;100.00;101690.94;1749830;80;21583;-42
2021/10/28 01:18:38;;;;;;;67.75;17.87;;;;;;;2.82;100.00;101687.37;1749908;82;21411;-42
2021/10/28 01:21:07;;;;;;;80.25;18.75;;;;;;;2.66;100.00;101691.11;1749863;82;20904;-42
2021/10/28 01:23:34;;;;;;;85.42;20.68;;;;;;;2.52;100.00;101690.64;1749991;82;20991;-43
2021/10/28 01:26:04;;;;;;;135.65;26.37;;;;;;;2.41;100.00;101690.27;1749994;82;20888;-42
2021/10/28 01:28:32;;;;;;;111.17;22.30;;;;;;;2.33;100.00;101678.02;1750021;82;21900;-42
2021/10/28 01:31:01;;;;;;;95.53;20.30;;;;;;;2.23;100.00;101684.49;1750016;81;20885;-42
2021/10/28 01:33:29;;;;;;;108.95;22.77;;;;;;;2.17;100.00;101686.44;1749923;82;21505;-42
2021/10/28 01:35:56;;;;;;;74.65;20.62;;;;;;;2.10;100.00;101682.79;1749799;82;20944;-42
2021/10/28 01:38:24;;;;;;;112.12;22.85;;;;;;;2.05;100.00;101681.77;1750178;82;21007;-42
2021/10/28 01:40:59;;;;;;;124.18;22.20;;;;;;;2.01;100.00;101685.88;1749901;82;21096;-42
2021/10/28 01:43:25;;;;;;;86.05;20.62;;;;;;;1.98;100.00;101679.38;1750337;82;20999;-40
2021/10/28 01:45:52;;;;;;;79.75;21.52;;;;;;;1.97;100.00;101680.20;1749807;82;20976;-41
2021/10/28 01:48:18;;;;;;;74.87;20.82;;;;;;;1.93;100.00;101683.46;1749907;81;21553;-41
2021/10/28 01:50:46;;;;;;;83.70;21.70;;;;;;;1.92;100.00;101680.84;1750293;82;20885;-42
2021/10/28 01:53:13;;;;;;;69.37;18.77;;;;;;;1.88;100.00;101681.54;1750072;82;21101;-41
2021/10/28 01:55:40;;;;;;;47.53;17.65;;;;;;;1.85;100.00;101684.45;1741377;81;20972;-41
2021/10/28 01:58:07;;;;;;;54.70;18.65;;;;;;;1.84;100.00;101680.55;1736003;82;20849;-42
2021/10/28 02:00:35;;;;;;;59.45;20.32;;;;;;;1.81;100.00;101684.27;1735882;82;20917;-41
2021/10/28 02:03:01;;;;;;;60.63;20.70;;;;;;;1.80;100.00;101685.08;1735995;82;21083;-41
2021/10/28 02:05:29;;;;;;;58.95;19.87;;;;;;;1.80;100.00;101683.41;1736163;82;21061;-41
2021/10/28 02:07:56;;;;;;;81.37;20.97;;;;;;;1.83;100.00;101689.91;1735975;82;21554;-41
2021/10/28 02:10:22;;;;;;;63.70;20.65;;;;;;;1.83;100.00;101691.58;1736077;82;20935;-43
2021/10/28 02:12:49;;;;;;;76.57;20.15;;;;;;;1.82;100.00;101691.11;1735769;81;20981;-43
2021/10/28 02:15:18;;;;;;;73.47;19.60;;;;;;;1.81;100.00;101690.65;1736101;82;21554;-43
2021/10/28 02:17:45;;;;;;;70.97;21.62;;;;;;;1.81;100.00;101694.48;1735833;82;21225;-43
2021/10/28 02:20:14;;;;;;;57.45;20.02;;;;;;;1.79;100.00;101693.16;1736018;82;21012;-43
2021/10/28 02:22:41;;;;;;;80.67;20.30;;;;;;;1.80;100.00;101696.18;1735885;82;21015;-43
2021/10/28 02:25:08;;;;;;;57.20;19.57;;;;;;;1.82;100.00;101694.94;1736065;82;21028;-42
2021/10/28 02:27:36;;;;;;;64.40;21.93;;;;;;;1.80;100.00;101691.07;1714803;82;20889;-42
2021/10/28 02:30:04;;;;;;;52.75;19.40;;;;;;;1.81;100.00;101700.86;1736318;82;21147;-42
2021/10/28 02:32:31;;;;;;;66.33;18.42;;;;;;;1.80;100.00;101705.51;1715479;82;20999;-41
2021/10/28 02:34:57;;;;;;;62.08;20.05;;;;;;;1.84;100.00;101700.58;1736283;82;20905;-41
2021/10/28 02:37:26;;;;;;;71.45;20.55;;;;;;;1.88;100.00;101704.52;1735683;81;20977;-42
2021/10/28 02:39:52;;;;;;;79.15;21.48;;;;;;;1.89;100.00;101706.27;1736161;82;21538;-41
2021/10/28 02:42:18;;;;;;;64.67;22.67;;;;;;;1.92;100.00;101706.38;1735866;82;21782;-43
2021/10/28 02:44:47;;;;;;;72.67;25.00;;;;;;;1.94;100.00;101708.19;1735955;81;21396;-43
2021/10/28 02:47:15;;;;;;;101.12;23.55;;;;;;;1.96;100.00;101709.11;1735850;82;20917;-43
2021/10/28 02:49:43;;;;;;;62.75;21.55;;;;;;;2.01;100.00;101713.97;1736042;82;20909;-42
2021/10/28 02:52:10;;;;;;;78.95;22.25;;;;;;;2.07;100.00;101715.01;1736051;82;20929;-43
2021/10/28 02:54:38;;;;;;;52.05;21.20;;;;;;;2.14;100.00;101716.97;1736301;81;21147;-43
2021/10/28 02:57:06;;;;;;;71.60;22.73;;;;;;;2.20;100.00;101721.05;1749699;82;20952;-42
2021/10/28 02:59:34;;;;;;;75.22;24.25;;;;;;;2.28;100.00;101720.05;1749694;82;20920;-42
2021/10/28 03:02:00;;;;;;;74.25;22.60;;;;;;;2.36;100.00;101720.30;1750038;82;20964;-43
2021/10/28 03:04:27;;;;;;;66.30;21.00;;;;;;;2.44;100.00;101726.58;1750090;82;21494;-43
2021/10/28 03:06:54;;;;;;;61.73;20.43;;;;;;;2.55;100.00;101736.76;1749831;82;21082;-42
2021/10/28 03:09:24;;;;;;;71.35;23.85;;;;;;;2.64;100.00;101731.10;1749772;82;20999;-43
2021/10/28 03:11:53;;;;;;;88.97;26.40;;;;;;;2.72;100.00;101730.09;1749805;82;20933;-42
2021/10/28 03:14:23;;;;;;;90.62;29.25;;;;;;;2.80;100.00;101724.82;1749657;82;20972;-42
2021/10/28 03:19:41;;;;;;;77.78;29.92;;;;;;;2.96;100.00;101713.84;1749870;82;21206;-41
2021/10/28 03:27:17;;;;;;;74.45;29.70;;;;;;;3.27;100.00;101716.11;1699678;82;21392;-42
2021/10/28 03:29:43;;;;;;;57.48;30.50;;;;;;;3.36;100.00;101718.09;1750042;82;21414;-42
2021/10/28 03:32:09;;;;;;;59.42;30.08;;;;;;;3.39;100.00;101720.31;1749740;81;21183;-42
2021/10/28 03:34:36;;;;;;;71.50;32.53;;;;;;;3.37;100.00;101716.84;1749686;82;20897;-42
2021/10/28 03:37:12;;;;;;;63.83;31.25;;;;;;;3.32;100.00;101712.42;1749828;82;21371;-42
2021/10/28 03:40:00;;;;;;;53.20;30.10;;;;;;;3.32;100.00;101712.42;1749680;82;21516;-42
2021/10/28 03:54:00;;;;;;;58.98;33.23;;;;;;;3.16;100.00;101715.36;1749838;82;20841;-42
2021/10/28 04:17:25;;;;;;;77.17;33.58;;;;;;;2.76;100.00;101738.72;1664942;86;21050;-43
2021/10/28 04:30:18;;;;;;;121.67;35.25;;;;;;;2.46;100.00;101741.95;1749919;82;21347;-41
2021/10/28 04:32:45;;;;;;;98.90;34.80;;;;;;;2.46;100.00;101733.89;1749525;82;22702;-41
2021/10/28 04:35:11;;;;;;;131.45;38.15;;;;;;;2.46;100.00;101727.89;1749779;81;20941;-42
2021/10/28 04:37:38;;;;;;;112.75;36.98;;;;;;;2.43;100.00;101724.41;1749726;82;21040;-42
2021/10/28 04:40:09;;;;;;;111.68;35.52;;;;;;;2.45;100.00;101730.88;1749822;82;20897;-42
2021/10/28 04:42:35;;;;;;;79.03;35.08;;;;;;;2.43;100.00;101729.52;1750088;82;20944;-42
2021/10/28 04:45:04;;;;;;;73.05;33.23;;;;;;;2.40;100.00;101725.59;1722131;82;20960;-43
2021/10/28 04:47:32;;;;;;;55.03;31.82;;;;;;;2.39;100.00;101722.96;1749870;82;21016;-42
2021/10/28 04:49:58;;;;;;;71.53;33.33;;;;;;;2.40;100.00;101713.20;1750155;82;21119;-43
2021/10/28 04:52:25;;;;;;;63.23;32.88;;;;;;;2.39;100.00;101721.30;1750127;82;20933;-42
2021/10/28 04:54:52;;;;;;;64.22;31.42;;;;;;;2.42;100.00;101725.66;1749848;82;21058;-42
2021/10/28 04:57:19;;;;;;;85.10;33.28;;;;;;;2.45;100.00;101732.15;1737845;81;21426;-43
2021/10/28 04:59:45;;;;;;;95.53;32.48;;;;;;;2.49;100.00;101742.94;1735856;82;20874;-42
2021/10/28 05:02:12;;;;;;;77.10;31.02;;;;;;;2.52;100.00;101734.49;1736093;82;21059;-41
2021/10/28 05:04:39;;;;;;;96.72;34.65;;;;;;;2.51;100.00;101736.19;1736016;82;21526;-43
2021/10/28 05:07:05;;;;;;;92.67;32.28;;;;;;;2.53;100.00;101738.81;1736002;82;20953;-41
2021/10/28 05:09:33;;;;;;;51.90;28.27;;;;;;;2.53;100.00;101731.15;1736225;82;21432;-42
2021/10/28 05:12:00;;;;;;;52.33;29.57;;;;;;;2.54;100.00;101727.77;1735935;82;21043;-42
2021/10/28 05:14:26;;;;;;;60.48;29.50;;;;;;;2.53;100.00;101725.61;1735911;82;21130;-41
2021/10/28 05:16:57;;;;;;;68.62;30.77;;;;;;;2.57;100.00;101719.78;1713903;82;21543;-42
2021/10/28 05:19:24;;;;;;;56.83;31.00;;;;;;;2.64;100.00;101718.70;1735874;82;21482;-42
2021/10/28 05:21:52;;;;;;;59.85;30.80;;;;;;;2.71;100.00;101727.08;1735889;82;20943;-41
2021/10/28 05:24:19;;;;;;;65.75;29.80;;;;;;;2.83;100.00;101737.70;1735938;82;20988;-41
2021/10/28 05:26:46;;;;;;;68.83;29.30;;;;;;;2.92;100.00;101735.02;1713603;82;21204;-41
2021/10/28 05:29:12;;;;;;;65.57;29.60;;;;;;;2.98;100.00;101733.94;1715017;82;20937;-42
2021/10/28 05:31:38;;;;;;;56.35;30.65;;;;;;;3.03;100.00;101729.84;1736107;82;20992;-42
2021/10/28 05:34:05;;;;;;;54.23;27.85;;;;;;;3.09;100.00;101742.83;1735920;82;20846;-41
2021/10/28 05:36:31;;;;;;;56.75;31.20;;;;;;;3.14;100.00;101738.72;1735821;82;21526;-41
2021/10/28 05:38:58;;;;;;;58.13;29.35;;;;;;;3.24;100.00;101751.84;1735936;82;21089;-42
2021/10/28 05:41:24;;;;;;;72.08;32.33;;;;;;;3.42;100.00;101742.59;1735729;82;20912;-42
2021/10/28 05:43:51;;;;;;;63.75;31.23;;;;;;;3.42;100.00;101742.59;1736169;82;20913;-42
2021/10/28 05:46:17;;;;;;;54.35;28.70;;;;;;;3.54;100.00;101740.84;1735988;81;20949;-41
2021/10/28 05:48:43;;;;;;;50.48;29.45;;;;;;;3.62;100.00;101739.37;1735887;82;21000;-41
2021/10/28 05:51:11;;;;;;;44.67;27.30;;;;;;;3.71;100.00;101743.52;1735955;81;21848;-42
2021/10/28 05:53:39;;;;;;;51.02;28.00;;;;;;;3.82;100.00;101737.83;1736012;82;20976;-42
2021/10/28 05:56:05;;;;;;;48.38;26.40;;;;;;;3.93;100.00;101742.88;1735832;82;20897;-42
2021/10/28 05:58:32;;;;;;;47.60;26.65;;;;;;;4.13;100.00;101738.33;1736129;82;21467;-41
2021/10/28 06:01:01;;;;;;;48.85;26.55;;;;;;;4.13;100.00;101738.33;1736125;82;21529;-42
2021/10/28 06:03:29;;;;;;;52.43;27.82;;;;;;;4.24;100.00;101736.08;1735889;82;22313;-42
2021/10/28 06:05:55;;;;;;;42.05;24.70;;;;;;;4.37;100.00;101732.16;1736048;82;21000;-42
2021/10/28 06:08:22;;;;;;;45.15;24.67;;;;;;;4.50;100.00;101738.48;1735908;81;20964;-42
2021/10/28 06:10:48;;;;;;;42.55;25.37;;;;;;;4.73;100.00;101736.95;1736177;82;21008;-42
2021/10/28 06:13:14;;;;;;;47.65;25.92;;;;;;;4.73;100.00;101736.95;1735960;82;20917;-42
2021/10/28 06:15:41;;;;;;;49.85;27.48;;;;;;;4.83;100.00;101752.18;1736037;82;21096;-42
2021/10/28 06:18:53;;;;;;;39.98;24.35;;;;;;;4.97;100.00;101759.80;1715155;82;20913;-42
2021/10/28 06:20:36;;;;;;;36.00;23.62;;;;;;;5.11;100.00;101757.58;1700534;82;20972;-42
2021/10/28 06:23:02;;;;;;;40.95;23.80;;;;;;;5.24;100.00;101760.04;1735787;82;20986;-43
2021/10/28 06:25:28;;;;;;;43.68;25.50;;;;;;;5.34;100.00;101767.55;1736221;82;21421;-42
2021/10/28 06:27:55;;;;;;;36.28;23.10;;;;;;;5.41;100.00;101765.58;1735894;81;21105;-42
2021/10/28 06:30:21;;;;;;;39.05;23.40;;;;;;;5.50;100.00;101764.94;1736097;82;20960;-42
2021/10/28 06:32:53;;;;;;;41.63;21.90;;;;;;;5.61;100.00;101749.77;1736012;82;20898;-42
2021/10/28 06:35:18;;;;;;;35.08;22.98;;;;;;;5.74;100.00;101732.93;1736025;82;20917;-42
2021/10/28 06:37:48;;;;;;;41.45;22.05;;;;;;;5.85;100.00;101726.34;1735834;81;20996;-42
2021/10/28 06:40:17;;;;;;;45.10;24.23;;;;;;;5.97;100.00;101722.28;1735901;82;21261;-42
2021/10/28 06:42:44;;;;;;;34.25;20.90;;;;;;;6.08;100.00;101731.13;1735752;82;20972;-42
2021/10/28 06:45:11;;;;;;;37.30;20.82;;;;;;;6.23;100.00;101721.57;1736151;82;20933;-42
2021/10/28 06:47:38;;;;;;;36.68;22.00;;;;;;;6.32;100.00;101715.31;1735753;82;21419;-42
2021/10/28 06:50:09;;;;;;;39.30;22.05;;;;;;;6.43;100.00;101719.78;1736060;82;21005;-42
2021/10/28 06:55:14;;;;;;;36.75;19.85;;;;;;;6.69;100.00;101732.26;1735656;82;20945;-42
2021/10/28 07:03:04;;;;;;;29.77;17.42;;;;;;;7.26;100.00;101720.79;1744095;82;20838;-42
2021/10/28 07:05:30;;;;;;;30.90;17.62;;;;;;;7.44;97.74;101717.17;1743984;82;21099;-42
2021/10/28 07:07:56;;;;;;;31.33;18.55;;;;;;;7.58;95.77;101717.81;1744274;82;21396;-42
2021/10/28 07:10:24;;;;;;;29.23;17.75;;;;;;;7.72;92.81;101709.87;1743916;82;20849;-42
2021/10/28 07:13:01;;;;;;;30.10;16.97;;;;;;;7.92;90.08;101710.52;1744290;82;21406;-42
2021/10/28 07:18:06;;;;;;;30.82;16.90;;;;;;;8.19;83.29;101701.38;1744243;81;21041;-42
2021/10/28 07:20:46;;;;;;;27.80;16.57;;;;;;;8.31;82.86;101698.95;1742057;82;21003;-42
2021/10/28 07:30:35;;;;;;;30.82;16.40;;;;;;;8.93;79.29;101687.09;1714503;82;21175;-42
2021/10/28 07:35:52;;;;;;;32.00;15.98;;;;;;;9.26;75.58;101698.97;1714591;82;20892;-42
2021/10/28 08:21:44;;;;;;;28.05;12.43;;;;;;;10.97;64.68;101634.35;1736138;82;21597;-42
2021/10/28 08:29:35;;;;;;;31.30;13.78;;;;;;;11.28;62.93;101643.81;1735899;82;20992;-42
2021/10/28 08:32:05;;;;;;;27.75;13.20;;;;;;;11.26;62.71;101638.61;1713572;82;20961;-42
2021/10/28 08:34:33;;;;;;;28.17;13.40;;;;;;;11.27;62.89;101628.67;1735901;81;20913;-42
2021/10/28 08:37:23;;;;;;;23.57;12.95;;;;;;;11.24;63.48;101631.70;1735880;82;21813;-42
2021/10/28 08:39:34;;;;;;;21.97;13.75;;;;;;;11.20;63.78;101633.45;1731438;82;20944;-42
2021/10/28 08:42:07;;;;;;;28.47;14.23;;;;;;;11.16;63.61;101629.99;1735957;82;20983;-42
2021/10/28 08:44:38;;;;;;;38.02;14.40;;;;;;;11.12;63.51;101625.69;1735984;82;20968;-42
2021/10/28 08:47:02;;;;;;;23.50;13.78;;;;;;;11.15;64.51;101630.86;1735438;82;20858;-42
2021/10/28 08:49:37;;;;;;;26.62;15.35;;;;;;;11.31;64.16;101623.06;1735935;82;21044;-42
2021/10/28 08:52:15;;;;;;;28.42;14.30;;;;;;;11.46;63.04;101620.85;1699842;84;20972;-42
2021/10/28 09:24:49;;;;;;;22.45;13.83;;;;;;;12.49;60.41;101593.46;1646554;84;21542;-43
2021/10/28 09:27:21;;;;;;;27.05;13.95;;;;;;;12.52;60.43;101584.80;1695475;84;20964;-43
2021/10/28 09:35:22;;;;;;;24.60;14.53;;;;;;;12.88;59.72;101573.63;1666066;84;20968;-42
2021/10/28 09:51:57;;;;;;;27.95;14.10;;;;;;;13.39;58.67;101552.69;1671293;84;21054;-43
2021/10/28 10:00:16;;;;;;;20.72;12.33;;;;;;;13.41;59.39;101555.28;1702929;84;20881;-43
2021/10/28 10:02:44;;;;;;;36.45;14.58;;;;;;;13.42;59.55;101543.99;1676766;84;20984;-43
2021/10/28 10:05:21;;;;;;;27.20;13.80;;;;;;;13.44;59.61;101553.51;1667703;84;21020;-43
2021/10/28 10:07:46;;;;;;;22.67;12.93;;;;;;;13.45;59.61;101557.83;1702563;83;21335;-43
2021/10/28 10:10:17;;;;;;;25.02;13.58;;;;;;;13.33;59.18;101552.31;1702924;84;21178;-43
2021/10/28 10:12:44;;;;;;;25.88;13.38;;;;;;;13.29;59.48;101554.98;1693567;84;20996;-43
2021/10/28 10:15:12;;;;;;;28.00;13.85;;;;;;;13.20;59.90;101546.41;1702953;84;21478;-43
2021/10/28 10:17:41;;;;;;;24.32;12.33;;;;;;;13.18;60.31;101542.96;1703117;84;20929;-43
2021/10/28 10:20:11;;;;;;;33.60;14.10;;;;;;;13.29;60.27;101543.29;1693469;84;21023;-43
2021/10/28 10:22:59;;;;;;;42.20;14.47;;;;;;;13.41;59.72;101541.81;1703043;84;21220;-43
2021/10/28 12:14:54;;;;;;;41.50;13.98;;;;;;;13.11;61.46;101463.34;1798201;79;22671;-42
2021/10/28 12:25:19;;;;;;;24.70;11.93;;;;;;;13.06;61.38;101467.29;1712491;83;20947;-43
2021/10/28 12:28:03;;;;;;;27.20;13.55;;;;;;;13.05;61.74;101463.43;1726019;81;20952;-43
2021/10/28 12:45:01;;;;;;;35.55;13.98;;;;;;;13.01;62.09;101453.50;1712483;83;21565;-42
2021/10/28 13:06:23;;;;;;;24.20;11.45;;;;;;;12.92;62.45;101466.16;1727912;83;20861;-43
2021/10/28 13:55:23;;;;;;;22.00;10.20;;;;;;;12.49;64.91;101482.22;1683066;85;21511;-42
2021/10/28 13:57:53;;;;;;;20.97;10.25;;;;;;;12.44;65.29;101480.98;1696897;82;21566;-42
2021/10/28 14:17:57;;;;;;;;;;;;;;;12.25;66.54;101480.73;1730189;83;20900;-43
2021/10/28 15:30:11;;;;;;;26.48;15.68;;;;;;;11.59;69.92;101529.61;1727541;83;21798;-42
2021/10/28 15:32:59;;;;;;;29.12;15.68;;;;;;;11.56;70.02;101541.30;1726688;81;20940;-43
2021/10/28 15:36:04;;;;;;;26.12;16.50;;;;;;;11.57;70.10;101533.94;1725078;83;20912;-42
2021/10/28 15:40:12;;;;;;;28.00;16.02;;;;;;;11.51;70.43;101542.60;1727675;83;21529;-42
2021/10/28 15:51:34;;;;;;;32.78;18.40;;;;;;;11.42;70.83;101553.03;1727543;83;21612;-42
2021/10/28 16:21:50;;;;;;;31.75;19.02;;;;;;;11.37;71.14;101569.89;1727528;83;21542;-42
2021/10/28 16:23:01;;;;;;;40.12;18.40;;;;;;;11.27;72.47;101591.55;1727598;82;21971;-42
2021/10/28 16:25:28;;;;;;;35.70;19.50;;;;;;;11.23;72.82;101587.20;1727411;83;20909;-42
2021/10/28 16:27:54;;;;;;;30.70;19.25;;;;;;;11.18;73.29;101584.20;1727564;83;20944;-42
2021/10/28 16:30:20;;;;;;;27.25;18.42;;;;;;;11.15;73.50;101591.98;1727522;82;20964;-42
2021/10/28 16:32:47;;;;;;;31.05;18.42;;;;;;;11.11;73.99;101588.98;1727433;82;20861;-42
2021/10/28 16:35:14;;;;;;;34.65;19.17;;;;;;;11.09;74.18;101588.12;1727536;82;21959;-42
2021/10/28 16:37:41;;;;;;;37.65;20.12;;;;;;;11.07;74.35;101591.16;1727429;83;20952;-43
2021/10/28 16:40:10;;;;;;;32.93;18.17;;;;;;;11.04;74.46;101597.64;1727488;83;21014;-42
2021/10/28 16:42:36;;;;;;;33.73;19.65;;;;;;;11.02;74.52;101601.97;1727617;83;20943;-43
2021/10/28 16:45:08;;;;;;;29.02;17.07;;;;;;;11.00;74.63;101603.70;1727662;82;20971;-42
2021/10/28 16:47:36;;;;;;;34.83;19.05;;;;;;;11.00;74.92;101603.25;1727553;83;21119;-42
2021/10/28 16:50:04;;;;;;;32.05;18.55;;;;;;;10.98;74.92;101607.99;1727521;81;20942;-42
2021/10/28 16:52:31;;;;;;;27.93;17.62;;;;;;;10.97;74.97;101606.27;1727463;83;20951;-42
2021/10/28 16:54:58;;;;;;;26.23;17.07;;;;;;;10.96;75.19;101611.02;1727289;83;20987;-42
2021/10/28 16:57:24;;;;;;;31.15;19.02;;;;;;;10.95;75.20;101615.77;1710842;83;20988;-43
2021/10/28 16:59:51;;;;;;;32.33;18.87;;;;;;;10.92;75.25;101609.73;1727710;83;21983;-42
2021/10/28 17:02:17;;;;;;;33.30;18.27;;;;;;;10.92;75.27;101616.22;1727615;82;20971;-42
2021/10/28 17:04:45;;;;;;;34.50;18.90;;;;;;;10.91;75.35;101613.64;1727584;83;21030;-42
2021/10/28 17:07:12;;;;;;;35.35;18.73;;;;;;;10.89;75.53;101605.86;1727493;82;21486;-42
2021/10/28 17:09:38;;;;;;;31.33;19.85;;;;;;;10.89;75.80;101612.78;1727530;82;20845;-42
2021/10/28 17:12:05;;;;;;;39.38;20.70;;;;;;;10.87;75.96;101616.66;1727612;83;21213;-42
2021/10/28 17:14:32;;;;;;;40.30;22.15;;;;;;;10.86;76.27;101617.94;1721522;82;20984;-42
2021/10/28 17:16:59;;;;;;;30.08;19.37;;;;;;;10.83;76.52;101613.64;1714791;82;20965;-42
2021/10/28 17:19:26;;;;;;;39.23;20.08;;;;;;;10.81;76.60;101615.38;1714722;83;20980;-42
2021/10/28 17:21:52;;;;;;;34.58;19.62;;;;;;;10.80;76.86;101610.19;1714635;83;20945;-42
2021/10/28 17:24:34;;;;;;;35.13;20.80;;;;;;;10.76;77.36;101616.66;1714700;83;21841;-42
2021/10/28 17:26:53;;;;;;;38.33;19.17;;;;;;;10.75;77.57;101620.13;1703024;83;21031;-42
2021/10/28 17:29:20;;;;;;;37.58;21.60;;;;;;;10.74;77.70;101620.98;1714617;82;20976;-42
2021/10/28 17:31:46;;;;;;;33.98;20.45;;;;;;;10.74;78.13;101624.02;1714807;82;20968;-42
2021/10/28 17:34:13;;;;;;;34.45;20.92;;;;;;;10.73;78.24;101624.86;1714621;82;21463;-42
2021/10/28 17:36:40;;;;;;;36.05;20.32;;;;;;;10.72;78.56;101627.90;1714879;83;21760;-42
2021/10/28 17:39:06;;;;;;;32.65;19.07;;;;;;;10.71;78.55;101626.59;1714669;83;20893;-42
2021/10/28 17:41:32;;;;;;;34.80;20.85;;;;;;;10.71;78.65;101625.30;1704233;83;20925;-42
2021/10/28 17:43:59;;;;;;;37.03;20.30;;;;;;;10.69;78.83;101624.44;1714715;83;20929;-42
2021/10/28 17:46:26;;;;;;;38.83;21.40;;;;;;;10.68;78.92;101636.95;1714977;82;20933;-42
2021/10/28 17:48:53;;;;;;;36.48;21.05;;;;;;;10.67;79.30;101627.45;1714767;83;21136;-43
2021/10/28 17:51:21;;;;;;;33.95;21.20;;;;;;;10.67;79.34;101635.23;1714591;83;20913;-42
2021/10/28 17:53:47;;;;;;;39.73;21.62;;;;;;;10.65;79.55;101637.83;1714799;83;21427;-42
2021/10/28 17:56:15;;;;;;;37.55;21.27;;;;;;;10.63;79.68;101633.94;1714526;83;21281;-42
2021/10/28 17:58:42;;;;;;;32.50;20.48;;;;;;;10.62;79.78;101640.42;1714815;82;20893;-42
2021/10/28 18:01:10;;;;;;;32.93;21.05;;;;;;;10.62;79.88;101641.72;1714600;82;21128;-42
2021/10/28 18:03:37;;;;;;;40.80;21.48;;;;;;;10.62;79.90;101639.12;1714610;83;20921;-42
2021/10/28 18:06:03;;;;;;;38.55;21.57;;;;;;;10.61;79.97;101641.29;1714834;83;20980;-42
2021/10/28 18:08:31;;;;;;;38.23;20.08;;;;;;;10.60;80.06;101630.05;1714951;82;21526;-43
2021/10/28 18:10:59;;;;;;;32.73;20.45;;;;;;;10.60;80.24;101644.30;1704514;83;20948;-43
2021/10/28 18:13:26;;;;;;;40.55;21.25;;;;;;;10.61;80.34;101643.87;1714613;82;21144;-42
2021/10/28 18:15:53;;;;;;;38.33;20.68;;;;;;;10.61;80.37;101645.17;1725898;82;20932;-42
2021/10/28 18:18:19;;;;;;;35.83;21.23;;;;;;;10.59;80.53;101649.05;1727528;82;20893;-42
2021/10/28 18:20:46;;;;;;;35.13;20.37;;;;;;;10.58;80.56;101657.67;1710936;83;20968;-43
2021/10/28 18:23:12;;;;;;;30.95;19.35;;;;;;;10.58;80.73;101656.38;1727616;82;21565;-43
2021/10/28 18:25:39;;;;;;;41.88;22.98;;;;;;;10.57;80.80;101652.06;1727975;82;21798;-42
2021/10/28 18:28:05;;;;;;;32.75;19.95;;;;;;;10.56;80.94;101655.94;1727525;82;21014;-42
2021/10/28 18:30:36;;;;;;;40.20;21.35;;;;;;;10.52;81.29;101652.50;1727839;83;20968;-42
2021/10/28 18:33:01;;;;;;;39.60;21.23;;;;;;;10.53;81.22;101650.76;1727276;82;21470;-42
2021/10/28 18:35:28;;;;;;;33.78;21.30;;;;;;;10.53;81.33;101658.11;1727625;83;21011;-42
2021/10/28 18:37:55;;;;;;;39.20;22.30;;;;;;;10.51;81.54;101663.72;1727658;82;21947;-42
2021/10/28 18:40:24;;;;;;;33.38;20.60;;;;;;;10.48;81.65;101661.09;1727463;83;20940;-42
2021/10/28 18:42:51;;;;;;;38.38;21.77;;;;;;;10.47;81.79;101664.55;1727316;83;21030;-42
2021/10/28 18:45:18;;;;;;;33.18;20.00;;;;;;;10.45;81.91;101666.27;1727466;83;20971;-43
2021/10/28 18:47:44;;;;;;;39.67;21.62;;;;;;;10.45;81.90;101671.45;1727706;82;20976;-42
2021/10/28 18:50:11;;;;;;;35.88;21.57;;;;;;;10.43;82.03;101668.00;1727554;82;21140;-42
2021/10/28 18:52:37;;;;;;;34.85;21.45;;;;;;;10.42;82.17;101671.45;1727746;82;20872;-42
2021/10/28 18:55:06;;;;;;;39.25;20.23;;;;;;;10.40;82.43;101667.58;1727562;81;20976;-42
2021/10/28 18:57:32;;;;;;;34.63;19.80;;;;;;;10.40;82.41;101670.17;1711579;83;20913;-42
2021/10/28 18:59:59;;;;;;;35.17;21.62;;;;;;;10.40;82.44;101673.14;1727580;83;20925;-42
2021/10/28 19:02:27;;;;;;;30.97;20.17;;;;;;;10.38;82.56;101671.86;1727770;82;21111;-43
2021/10/28 19:04:54;;;;;;;29.90;19.48;;;;;;;10.39;82.77;101670.13;1727537;82;21006;-42
2021/10/28 19:07:22;;;;;;;33.50;18.82;;;;;;;10.40;82.84;101683.50;1710890;83;20908;-42
2021/10/28 19:09:48;;;;;;;31.60;19.82;;;;;;;10.40;82.74;101681.82;1727496;83;20944;-42
2021/10/28 19:12:14;;;;;;;32.78;20.57;;;;;;;10.40;82.88;101678.32;1727814;82;20909;-42
2021/10/28 19:14:43;;;;;;;33.45;20.97;;;;;;;10.40;82.97;101684.41;1708093;83;21817;-42
2021/10/28 19:17:11;;;;;;;32.53;20.20;;;;;;;10.41;83.01;101683.55;1714584;83;20889;-42
2021/10/28 19:19:39;;;;;;;33.58;20.37;;;;;;;10.42;83.04;101694.75;1714787;82;20924;-42
2021/10/28 19:22:06;;;;;;;36.80;20.62;;;;;;;10.42;83.03;101696.05;1714581;82;20964;-43
2021/10/28 19:24:34;;;;;;;37.73;22.00;;;;;;;10.41;83.05;101695.20;1714561;83;20944;-42
2021/10/28 19:27:01;;;;;;;31.33;21.30;;;;;;;10.40;83.09;101699.94;1704324;83;20957;-42
2021/10/28 19:29:27;;;;;;;33.20;20.37;;;;;;;10.41;83.21;101695.61;1714599;83;20988;-42
2021/10/28 19:32:08;;;;;;;34.27;20.77;;;;;;;10.41;83.23;101699.49;1714628;82;20937;-42
2021/10/28 19:34:34;;;;;;;41.63;22.67;;;;;;;10.40;83.28;101693.47;1713858;82;21000;-42
2021/10/28 19:37:10;;;;;;;34.35;20.40;;;;;;;10.39;83.51;101690.41;1714383;82;20940;-43
2021/10/28 19:42:35;;;;;;;33.20;20.20;;;;;;;10.41;83.83;101703.38;1714555;83;20988;-42
2021/10/28 19:47:21;;;;;;;35.15;20.68;;;;;;;10.41;84.19;101698.20;1682936;85;21016;-42